Time;durP1;ratioP1;P1;durP2;ratioP2;P2;SDS_P1;SDS_P2;PMS_P1;PMS_P2;Temp;Humidity;BMP_temperature;BMP_pressure;BME280_temperature;BME280_humidity;BME280_pressure;Samples;Min_cycle;Max_cycle;Signal;HPM_P1;HPM_P2
2021/11/16 00:00:49;;;;;;;;;17.67;13.00;;;;;8.14;69.71;102091.13;4972712;28;45919;-70
2021/11/16 00:03:14;;;;;;;;;16.67;14.00;;;;;8.11;69.66;102097.34;4969950;28;45354;-70
2021/11/16 00:05:40;;;;;;;;;19.00;12.33;;;;;8.13;69.50;102097.28;4972845;28;45336;-71
2021/11/16 00:08:06;;;;;;;;;17.67;13.67;;;;;8.14;69.60;102086.72;4998300;28;45819;-70
2021/11/16 00:10:32;;;;;;;;;14.33;10.67;;;;;8.16;69.80;102087.53;5004602;28;46211;-70
2021/11/16 00:12:58;;;;;;;;;7.33;4.00;;;;;8.18;69.50;102082.22;4959241;28;45512;-70
2021/11/16 00:15:24;;;;;;;;;14.33;10.67;;;;;8.17;69.84;102075.28;4966653;28;45868;-72
2021/11/16 00:17:49;;;;;;;;;14.00;10.00;;;;;8.22;69.64;102081.19;4960611;28;45483;-70
2021/11/16 00:20:16;;;;;;;;;14.67;10.67;;;;;8.24;69.42;102087.22;4961834;28;45881;-71
2021/11/16 00:22:43;;;;;;;;;12.67;12.00;;;;;8.25;69.57;102088.88;4962773;28;45634;-70
2021/11/16 00:27:41;;;;;;;;;14.00;13.67;;;;;8.19;69.51;102073.47;4964166;28;45467;-72
2021/11/16 00:30:08;;;;;;;;;20.33;14.00;;;;;8.16;70.10;102068.34;4967728;28;46431;-71
2021/11/16 00:32:34;;;;;;;;;16.67;13.33;;;;;8.16;69.86;102066.59;4961495;28;45502;-74
2021/11/16 00:35:01;;;;;;;;;21.33;15.67;;;;;8.15;69.83;102067.50;4967014;28;46125;-71
2021/11/16 00:37:29;;;;;;;;;15.00;14.00;;;;;8.17;69.88;102059.56;4963000;28;45467;-71
2021/11/16 00:40:00;;;;;;;;;17.00;15.33;;;;;8.16;69.77;102061.34;4955951;28;45959;-72
2021/11/16 00:42:26;;;;;;;;;23.33;14.67;;;;;8.16;70.22;102057.88;4971938;28;45580;-81
2021/11/16 00:44:52;;;;;;;;;16.67;9.67;;;;;8.14;70.24;102051.88;4961836;28;45458;-83
2021/11/16 00:47:18;;;;;;;;;27.33;14.33;;;;;8.09;69.90;102050.31;4961922;28;45377;-75
2021/11/16 00:49:44;;;;;;;;;21.33;15.67;;;;;8.01;70.47;102041.06;4977710;28;45435;-74
2021/11/16 00:52:10;;;;;;;;;15.67;12.67;;;;;7.96;70.38;102038.63;5019644;28;45363;-80
2021/11/16 00:54:35;;;;;;;;;24.33;13.00;;;;;7.91;69.88;102032.75;4960551;28;45471;-71
2021/11/16 00:57:01;;;;;;;;;15.00;14.67;;;;;7.91;70.12;102032.75;4977518;28;45557;-72
2021/11/16 00:59:26;;;;;;;;;16.00;8.33;;;;;7.88;69.98;102038.13;4960248;28;45430;-70
2021/11/16 01:01:52;;;;;;;;;18.33;11.67;;;;;7.85;70.35;102033.00;4962130;28;45534;-70
2021/11/16 01:04:17;;;;;;;;;15.33;11.33;;;;;7.83;70.52;102027.00;4966069;28;45367;-71
2021/11/16 01:06:44;;;;;;;;;17.33;13.00;;;;;7.82;70.90;102030.53;4963122;28;45439;-76
2021/11/16 01:09:10;;;;;;;;;20.00;14.67;;;;;7.84;71.12;102029.53;4972504;28;45426;-70
2021/11/16 01:11:35;;;;;;;;;21.33;16.00;;;;;7.88;71.26;102023.25;4957575;28;45563;-69
2021/11/16 01:14:01;;;;;;;;;24.00;13.00;;;;;7.89;70.91;102022.34;4993243;28;45734;-69
2021/11/16 01:16:26;;;;;;;;;23.00;15.67;;;;;7.99;71.22;102032.41;4972214;28;45493;-71
2021/11/16 01:18:52;;;;;;;;;18.00;13.00;;;;;8.04;71.04;102028.72;4956906;28;46224;-69
2021/11/16 01:21:18;;;;;;;;;19.00;15.00;;;;;8.08;71.19;102025.03;4956942;28;45435;-71
2021/11/16 01:23:43;;;;;;;;;16.33;14.00;;;;;8.10;71.21;102014.50;5021331;28;45433;-70
2021/11/16 01:26:09;;;;;;;;;22.00;13.67;;;;;8.14;70.82;102020.47;4977682;28;45523;-71
2021/11/16 01:28:35;;;;;;;;;13.67;12.67;;;;;8.15;70.63;102020.38;4982107;28;45497;-72
2021/11/16 01:31:04;;;;;;;;;26.67;15.33;;;;;8.12;70.37;102017.91;5033779;28;45446;-71
2021/11/16 01:34:05;;;;;;;;;18.67;14.00;;;;;8.13;70.53;102027.44;4963266;28;45582;-72
2021/11/16 01:36:23;;;;;;;;;20.33;12.33;;;;;8.07;71.08;102018.09;4976336;28;45328;-73
2021/11/16 01:38:51;;;;;;;;;17.33;15.00;;;;;8.08;71.03;102025.03;4963161;28;46551;-72
2021/11/16 01:41:20;;;;;;;;;24.67;16.00;;;;;8.08;71.08;102030.28;4961938;28;45526;-69
2021/11/16 01:43:46;;;;;;;;;25.67;14.00;;;;;8.06;70.91;102021.63;4964147;28;45280;-72
2021/11/16 01:46:14;;;;;;;;;21.00;15.00;;;;;8.05;71.32;102022.53;4974046;28;45388;-69
2021/11/16 01:48:41;;;;;;;;;20.67;13.67;;;;;8.03;70.98;102029.63;4957310;28;48515;-70
2021/11/16 01:51:07;;;;;;;;;14.33;7.33;;;;;8.03;71.25;102031.38;4971487;28;45308;-71
2021/11/16 01:53:34;;;;;;;;;19.67;14.00;;;;;8.04;71.14;102028.72;4964012;28;45344;-72
2021/11/16 01:56:01;;;;;;;;;13.00;13.00;;;;;8.02;71.44;102027.06;5006567;28;45552;-72
2021/11/16 01:58:26;;;;;;;;;17.67;13.67;;;;;7.99;71.46;102020.22;5010891;28;45565;-72
2021/11/16 02:00:53;;;;;;;;;21.67;13.33;;;;;7.99;71.72;102020.22;4959572;28;45554;-71
2021/11/16 02:03:19;;;;;;;;;24.00;17.67;;;;;8.02;71.71;102022.69;5039697;28;45425;-70
2021/11/16 02:05:51;;;;;;;;;15.33;11.33;;;;;8.04;71.81;102018.25;5023434;28;45465;-71
2021/11/16 02:08:17;;;;;;;;;18.00;13.00;;;;;8.11;71.95;102021.44;4977430;28;47020;-70
2021/11/16 02:10:46;;;;;;;;;14.00;10.00;;;;;8.12;71.71;102019.66;4969100;28;45833;-72
2021/11/16 02:13:12;;;;;;;;;16.00;10.00;;;;;8.19;71.72;102021.94;4961471;28;45339;-71
2021/11/16 02:15:38;;;;;;;;;12.00;8.33;;;;;8.19;71.20;102016.72;4973597;28;45607;-71
2021/11/16 02:18:10;;;;;;;;;19.67;15.33;;;;;8.16;71.48;102021.22;4959490;28;46165;-72
2021/11/16 02:20:38;;;;;;;;;17.00;10.67;;;;;8.13;71.67;102016.97;4957842;28;45293;-66
2021/11/16 02:23:06;;;;;;;;;13.67;12.00;;;;;8.06;71.96;102012.94;4960165;28;45467;-72
2021/11/16 02:25:33;;;;;;;;;12.67;8.67;;;;;7.96;71.78;102009.84;4965075;28;45418;-77
2021/11/16 02:27:58;;;;;;;;;23.00;15.33;;;;;7.88;72.14;102015.41;4975823;28;46135;-79
2021/11/16 02:30:25;;;;;;;;;20.67;12.67;;;;;7.81;72.37;102011.38;4959665;28;45388;-82
2021/11/16 02:32:52;;;;;;;;;19.00;13.67;;;;;7.74;72.54;102010.75;4964090;28;45562;-77
2021/11/16 02:35:19;;;;;;;;;17.00;13.00;;;;;7.72;72.31;102012.59;4985674;28;45448;-77
2021/11/16 02:37:45;;;;;;;;;16.00;13.33;;;;;7.69;72.76;102007.50;4972487;28;46198;-77
2021/11/16 02:40:11;;;;;;;;;19.67;12.00;;;;;7.69;72.03;102012.72;4972888;28;45434;-77
2021/11/16 02:42:36;;;;;;;;;20.00;16.33;;;;;7.64;73.20;102006.84;4970582;28;45264;-78
2021/11/16 02:45:05;;;;;;;;;12.67;7.00;;;;;7.60;72.83;102008.72;4974637;28;45466;-77
2021/11/16 02:47:30;;;;;;;;;15.00;13.00;;;;;7.55;72.84;102010.69;4972173;28;46206;-78
2021/11/16 02:49:56;;;;;;;;;12.00;10.00;;;;;7.53;72.64;102011.66;4973312;28;45483;-76
2021/11/16 02:52:21;;;;;;;;;15.33;14.67;;;;;7.50;72.82;102006.53;4972867;28;45519;-77
2021/11/16 02:54:47;;;;;;;;;20.00;14.00;;;;;7.48;72.86;102009.22;4983917;28;45534;-77
2021/11/16 02:57:13;;;;;;;;;23.00;14.33;;;;;7.46;73.06;102004.97;4974189;28;46427;-78
2021/11/16 02:59:40;;;;;;;;;13.00;8.00;;;;;7.44;72.91;102005.88;4974006;28;45460;-78
2021/11/16 03:02:05;;;;;;;;;19.67;13.00;;;;;7.50;73.44;102003.91;4972876;28;45470;-78
2021/11/16 03:04:34;;;;;;;;;17.33;16.33;;;;;7.56;73.68;102006.28;4972111;28;45776;-78
2021/11/16 03:07:04;;;;;;;;;19.33;15.00;;;;;7.62;72.81;102013.06;4968847;28;45341;-78
2021/11/16 03:09:32;;;;;;;;;14.00;10.33;;;;;7.60;73.02;101997.41;4972579;28;45528;-78
2021/11/16 03:11:59;;;;;;;;;20.75;17.00;;;;;7.62;72.64;102002.59;4975400;28;45681;-77
2021/11/16 03:14:26;;;;;;;;;15.67;14.00;;;;;7.59;73.14;101996.56;4973053;28;47255;-77
2021/11/16 03:16:52;;;;;;;;;18.25;13.00;;;;;7.58;73.32;102009.69;4977882;28;46491;-78
2021/11/16 03:19:17;;;;;;;;;26.67;15.33;;;;;7.57;73.37;101997.53;4983106;28;45396;-76
2021/11/16 03:21:53;;;;;;;;;23.33;12.00;;;;;7.58;72.70;101997.47;4982973;28;45441;-76
2021/11/16 03:24:18;;;;;;;;;17.33;12.67;;;;;7.59;73.39;101998.34;4985619;28;45384;-77
2021/11/16 03:26:43;;;;;;;;;14.67;12.33;;;;;7.58;72.60;102004.47;4986027;28;46280;-77
2021/11/16 03:29:11;;;;;;;;;19.00;13.75;;;;;7.57;73.10;102008.00;4988639;28;45592;-76
2021/11/16 03:31:40;;;;;;;;;12.00;10.33;;;;;7.57;72.46;101997.53;4998341;28;45459;-76
2021/11/16 03:34:06;;;;;;;;;18.00;13.67;;;;;7.54;73.12;102002.91;4981870;28;45585;-77
2021/11/16 03:36:32;;;;;;;;;19.67;12.00;;;;;7.55;73.50;101999.34;4982898;28;46345;-77
2021/11/16 03:39:00;;;;;;;;;13.00;12.00;;;;;7.54;72.78;101981.97;4989465;28;45344;-77
2021/11/16 03:41:26;;;;;;;;;17.33;10.33;;;;;7.63;73.64;101985.97;4983689;28;45619;-76
2021/11/16 03:43:54;;;;;;;;;25.33;12.00;;;;;7.67;73.13;101991.00;4978009;28;45561;-77
2021/11/16 03:46:21;;;;;;;;;14.00;10.67;;;;;7.68;72.70;101995.34;4979310;28;46690;-77
2021/11/16 03:48:47;;;;;;;;;94.50;69.25;;;;;7.72;73.30;101996.91;4972876;28;45441;-76
2021/11/16 03:51:13;;;;;;;;;17.33;12.67;;;;;7.73;72.74;102002.97;4974297;28;45405;-78
2021/11/16 03:53:38;;;;;;;;;24.00;16.33;;;;;7.72;72.89;101996.03;4969579;28;45537;-77
2021/11/16 03:56:04;;;;;;;;;19.67;12.00;;;;;7.72;73.30;102004.75;4970481;28;46574;-77
2021/11/16 03:58:30;;;;;;;;;27.25;17.75;;;;;7.74;73.55;102002.91;4971052;28;45851;-76
2021/11/16 04:01:03;;;;;;;;;21.67;13.33;;;;;7.73;73.52;102003.84;4970701;28;45510;-76
2021/11/16 04:03:31;;;;;;;;;12.67;8.67;;;;;7.72;73.73;102007.38;4972044;28;45363;-77
2021/11/16 04:05:57;;;;;;;;;19.33;15.33;;;;;7.74;73.93;102000.28;4972968;28;47189;-76
2021/11/16 04:08:23;;;;;;;;;12.00;9.00;;;;;7.77;73.73;101999.31;4971511;28;45527;-78
2021/11/16 04:10:49;;;;;;;;;15.00;12.33;;;;;7.80;73.53;101991.34;4971985;28;47846;-78
2021/11/16 04:13:16;;;;;;;;;14.33;11.67;;;;;7.82;73.04;101996.50;4971247;28;45574;-77
2021/11/16 04:15:42;;;;;;;;;21.00;14.00;;;;;7.79;73.52;101997.50;4972441;28;45347;-78
2021/11/16 04:18:08;;;;;;;;;16.33;12.67;;;;;7.75;72.98;102002.00;4979226;28;45485;-77
2021/11/16 04:20:37;;;;;;;;;16.67;12.00;;;;;7.73;72.86;101992.50;4970551;28;45313;-77
2021/11/16 04:23:04;;;;;;;;;18.33;12.33;;;;;7.74;73.17;102002.06;4971591;28;45664;-77
2021/11/16 04:25:32;;;;;;;;;9.67;6.33;;;;;7.74;73.27;101996.81;4971368;28;47184;-76
2021/11/16 04:27:57;;;;;;;;;17.00;14.00;;;;;7.79;72.87;101994.03;4969427;28;45509;-78
2021/11/16 04:30:26;;;;;;;;;14.00;10.00;;;;;7.83;72.74;102003.44;4972271;28;45465;-77
2021/11/16 04:32:52;;;;;;;;;15.00;11.33;;;;;7.82;73.25;101996.50;4971086;28;45502;-76
2021/11/16 04:35:18;;;;;;;;;15.67;11.67;;;;;7.86;72.86;101995.47;4969103;28;46101;-77
2021/11/16 04:37:45;;;;;;;;;14.00;9.00;;;;;7.84;72.23;101995.53;4969913;28;45446;-77
2021/11/16 04:40:14;;;;;;;;;22.67;13.33;;;;;7.82;72.34;101997.34;4971256;28;45318;-78
2021/11/16 04:42:39;;;;;;;;;9.00;8.33;;;;;7.79;71.72;102001.88;4957605;28;45436;-76
2021/11/16 04:45:10;;;;;;;;;15.33;10.33;;;;;7.74;71.79;101995.06;4973866;28;46169;-77
2021/11/16 04:47:49;;;;;;;;;14.00;11.00;;;;;7.68;72.03;102000.56;4971605;28;45499;-76
2021/11/16 04:52:57;;;;;;;;;13.00;11.33;;;;;7.62;71.51;102000.81;4971239;28;45584;-78
2021/11/16 05:03:52;;;;;;;;;8.67;6.00;;;;;7.60;71.60;102013.09;4962063;28;47460;-77
2021/11/16 05:06:18;;;;;;;;;18.00;13.33;;;;;7.61;72.23;102009.56;4971294;28;45502;-78
2021/11/16 05:08:45;;;;;;;;;19.00;11.33;;;;;7.61;71.66;102014.78;4972026;28;45429;-78
2021/11/16 05:11:11;;;;;;;;;17.33;15.33;;;;;7.62;72.11;102006.03;4968709;28;45336;-78
2021/11/16 05:13:39;;;;;;;;;14.00;11.00;;;;;7.67;72.44;102005.88;4971260;28;45469;-78
2021/11/16 05:16:05;;;;;;;;;14.33;9.00;;;;;7.71;72.34;102005.66;4971135;28;45618;-78
2021/11/16 05:18:31;;;;;;;;;18.67;11.67;;;;;7.71;71.94;102005.66;4975612;28;45359;-78
2021/11/16 05:20:56;;;;;;;;;18.67;13.67;;;;;7.73;72.28;101998.59;4977134;28;45449;-78
2021/11/16 05:23:22;;;;;;;;;19.33;11.33;;;;;7.76;72.26;101998.47;4977233;28;45426;-78
2021/11/16 05:25:55;;;;;;;;;15.00;11.67;;;;;7.80;72.11;102001.81;4978538;28;45532;-78
2021/11/16 05:28:21;;;;;;;;;18.00;14.75;;;;;7.82;71.83;102002.56;4974762;28;45951;-78
2021/11/16 05:30:52;;;;;;;;;26.00;16.67;;;;;7.81;72.28;102005.25;4981848;28;45281;-78
2021/11/16 05:33:18;;;;;;;;;24.33;18.00;;;;;7.83;72.25;102008.69;4984005;28;45530;-77
2021/11/16 05:35:44;;;;;;;;;23.00;17.33;;;;;7.83;72.21;102008.69;4973022;28;45414;-78
2021/11/16 05:38:21;;;;;;;;;21.67;18.67;;;;;7.82;72.37;102012.19;4975995;28;45284;-78
2021/11/16 05:40:47;;;;;;;;;22.33;15.00;;;;;7.81;72.21;102013.13;4969785;28;45759;-78
2021/11/16 05:43:12;;;;;;;;;27.67;16.67;;;;;7.79;71.77;102017.56;4975175;28;45635;-77
2021/11/16 05:45:38;;;;;;;;;16.00;12.00;;;;;7.74;71.80;102018.59;4970814;28;46152;-77
2021/11/16 05:48:04;;;;;;;;;18.33;14.00;;;;;7.73;72.08;102019.53;4972363;28;45407;-78
2021/11/16 05:50:31;;;;;;;;;18.33;15.33;;;;;7.75;71.84;102012.44;4965019;28;45559;-78
2021/11/16 05:52:56;;;;;;;;;11.33;10.00;;;;;7.79;72.41;102017.56;4970200;28;45432;-77
2021/11/16 05:55:22;;;;;;;;;30.00;15.75;;;;;7.77;71.79;102020.22;4979000;28;46083;-77
2021/11/16 05:57:50;;;;;;;;;16.67;14.67;;;;;7.79;72.37;102012.34;4971075;28;45281;-77
2021/11/16 06:00:15;;;;;;;;;15.67;13.00;;;;;7.82;71.85;102012.19;4972056;28;45382;-78
2021/11/16 06:02:41;;;;;;;;;21.33;16.33;;;;;7.81;71.45;102013.13;4971707;28;45285;-78
2021/11/16 06:05:06;;;;;;;;;21.33;14.67;;;;;7.78;71.94;102016.72;4974116;28;45328;-79
2021/11/16 06:07:32;;;;;;;;;18.33;14.33;;;;;7.78;72.00;102024.56;4977504;28;45349;-78
2021/11/16 06:09:57;;;;;;;;;28.67;14.00;;;;;7.79;71.88;102015.81;4977005;28;45918;-78
2021/11/16 06:12:22;;;;;;;;;24.00;18.00;;;;;7.83;71.72;102019.97;4971018;28;45441;-77
2021/11/16 06:14:48;;;;;;;;;21.33;12.00;;;;;7.78;71.67;102015.88;4973621;28;45857;-77
2021/11/16 06:17:13;;;;;;;;;19.00;13.33;;;;;7.76;71.49;102016.78;4972477;28;45397;-77
2021/11/16 06:19:39;;;;;;;;;18.67;14.00;;;;;7.74;71.68;102021.22;4973407;28;45489;-77
2021/11/16 06:22:10;;;;;;;;;22.00;21.25;;;;;7.74;71.72;102034.28;4972718;28;46263;-78
2021/11/16 06:24:37;;;;;;;;;21.33;14.00;;;;;7.72;71.59;102030.91;4972820;28;49134;-78
2021/11/16 06:27:04;;;;;;;;;21.67;17.00;;;;;7.73;71.19;102032.63;4974309;28;45525;-78
2021/11/16 06:29:29;;;;;;;;;23.75;17.25;;;;;7.74;71.27;102036.91;4973072;28;45371;-77
2021/11/16 06:31:54;;;;;;;;;16.00;13.33;;;;;7.75;71.42;102033.38;4972748;28;45553;-78
2021/11/16 06:34:20;;;;;;;;;19.50;15.75;;;;;7.77;71.11;102028.09;4971330;28;45859;-79
2021/11/16 06:36:47;;;;;;;;;18.25;14.75;;;;;7.80;71.65;102029.72;4975621;27;45421;-78
2021/11/16 06:39:16;;;;;;;;;26.00;19.25;;;;;7.81;71.20;102042.75;4975182;28;45356;-77
2021/11/16 06:41:42;;;;;;;;;19.50;16.25;;;;;7.81;71.77;102041.88;4974678;28;45580;-79
2021/11/16 06:44:09;;;;;;;;;24.75;19.50;;;;;7.80;70.88;102034.94;4973347;28;47249;-77
2021/11/16 06:46:35;;;;;;;;;24.75;17.50;;;;;7.78;71.35;102039.41;4973518;28;45318;-79
2021/11/16 06:49:03;;;;;;;;;26.25;15.00;;;;;7.72;71.28;102030.91;4971586;28;45434;-78
2021/11/16 06:51:31;;;;;;;;;26.67;15.67;;;;;7.71;71.96;102031.81;4974554;28;45358;-77
2021/11/16 06:53:56;;;;;;;;;30.50;18.00;;;;;7.72;71.23;102030.03;4975231;28;47325;-76
2021/11/16 06:56:25;;;;;;;;;18.67;15.33;;;;;7.71;71.21;102033.59;4972222;28;45482;-77
2021/11/16 06:58:51;;;;;;;;;17.50;15.00;;;;;7.69;71.29;102036.28;4973017;28;45439;-78
2021/11/16 07:01:17;;;;;;;;;18.75;15.75;;;;;7.67;71.55;102038.09;4974621;27;45411;-79
2021/11/16 07:03:49;;;;;;;;;18.50;14.25;;;;;7.64;71.53;102039.97;4974114;28;47061;-80
2021/11/16 07:06:14;;;;;;;;;20.25;9.50;;;;;7.63;71.82;102039.13;4975551;28;45323;-78
2021/11/16 07:08:42;;;;;;;;;16.75;12.50;;;;;7.64;71.67;102040.84;4974089;28;45404;-79
2021/11/16 07:11:17;;;;;;;;;15.67;13.67;;;;;7.65;71.56;102034.66;4972132;28;45415;-79
2021/11/16 07:13:59;;;;;;;;;18.00;12.75;;;;;7.67;71.03;102034.63;4971208;28;46164;-77
2021/11/16 07:16:27;;;;;;;;;22.00;17.67;;;;;7.69;71.52;102031.03;4973949;28;45489;-79
2021/11/16 07:18:56;;;;;;;;;22.00;16.33;;;;;7.63;71.17;102019.97;4973259;28;45390;-78
2021/11/16 07:21:24;;;;;;;;;18.00;11.25;;;;;7.76;71.10;102029.84;4978346;28;45531;-79
2021/11/16 07:24:09;;;;;;;;;23.25;19.50;;;;;7.80;71.26;102041.06;4976539;28;46071;-79
2021/11/16 07:26:39;;;;;;;;;21.50;16.50;;;;;7.79;70.84;102028.88;4971207;28;45687;-79
2021/11/16 07:29:11;;;;;;;;;24.50;17.00;;;;;7.77;70.64;102035.94;4973538;28;45411;-78
2021/11/16 07:31:41;;;;;;;;;23.67;15.00;;;;;7.75;70.57;102038.63;4972859;28;45391;-82
2021/11/16 07:34:17;;;;;;;;;19.67;13.33;;;;;7.77;71.32;102038.53;4973164;28;46540;-79
2021/11/16 07:37:04;;;;;;;;;22.00;15.33;;;;;7.82;71.34;102038.38;4957435;28;45521;-78
2021/11/16 07:39:42;;;;;;;;;21.67;14.67;;;;;7.86;71.14;102045.16;4973211;28;45406;-78
2021/11/16 07:42:09;;;;;;;;;18.00;13.33;;;;;7.89;70.98;102034.59;4973725;28;45443;-78
2021/11/16 07:44:36;;;;;;;;;18.33;18.00;;;;;7.90;70.90;102041.50;4970963;28;46042;-81
2021/11/16 07:47:03;;;;;;;;;22.50;17.50;;;;;7.92;71.33;102039.69;4972523;28;45376;-80
2021/11/16 07:49:29;;;;;;;;;31.25;22.00;;;;;7.95;70.86;102044.78;4973374;28;45593;-78
2021/11/16 07:51:56;;;;;;;;;20.50;15.75;;;;;7.92;70.75;102037.06;4972520;28;45592;-80
2021/11/16 07:54:29;;;;;;;;;24.00;18.75;;;;;7.96;71.02;102043.03;4973767;28;45601;-80
2021/11/16 07:57:05;;;;;;;;;27.50;21.25;;;;;8.00;70.53;102042.81;4972845;28;45430;-78
2021/11/16 07:59:33;;;;;;;;;32.50;21.75;;;;;8.02;70.74;102048.84;4971158;28;45688;-79
2021/11/16 08:02:06;;;;;;;;;22.25;19.25;;;;;8.01;70.81;102044.53;4972955;28;45456;-77
2021/11/16 08:04:51;;;;;;;;;17.00;14.00;;;;;8.02;70.54;102043.63;4972996;28;46374;-80
2021/11/16 08:07:34;;;;;;;;;24.33;17.00;;;;;8.09;70.61;102046.81;4971350;27;45282;-79
2021/11/16 08:10:05;;;;;;;;;19.75;14.75;;;;;8.10;70.58;102046.75;4958013;28;45559;-78
2021/11/16 08:12:41;;;;;;;;;22.67;17.67;;;;;8.10;70.26;102049.38;4972681;28;45458;-79
2021/11/16 08:15:10;;;;;;;;;27.00;18.25;;;;;8.11;70.62;102045.00;4973900;28;47221;-77
2021/11/16 08:17:36;;;;;;;;;23.67;15.33;;;;;8.11;70.66;102047.63;4972659;28;45385;-79
2021/11/16 08:20:15;;;;;;;;;23.50;17.50;;;;;8.10;69.98;102043.28;4972880;28;45373;-79
2021/11/16 08:22:44;;;;;;;;;24.33;18.33;;;;;8.10;69.89;102048.53;4977238;28;45499;-79
2021/11/16 08:25:10;;;;;;;;;21.00;17.25;;;;;8.07;69.56;102038.19;4975280;28;46467;-77
2021/11/16 08:27:43;;;;;;;;;24.00;15.67;;;;;8.07;69.89;102039.03;4971361;28;45288;-78
2021/11/16 08:30:16;;;;;;;;;21.75;18.00;;;;;8.07;69.54;102046.88;4970422;28;45317;-79
2021/11/16 08:32:44;;;;;;;;;20.67;16.67;;;;;8.04;69.51;102044.41;4973521;28;45390;-80
2021/11/16 08:35:19;;;;;;;;;21.00;17.67;;;;;8.05;69.97;102042.63;4972698;28;46587;-79
2021/11/16 08:37:46;;;;;;;;;30.50;19.00;;;;;8.05;69.45;102040.84;4972040;28;46498;-79
2021/11/16 08:40:21;;;;;;;;;18.50;14.25;;;;;8.07;69.74;102039.03;4970381;28;45306;-78
2021/11/16 08:42:54;;;;;;;;;21.00;18.67;;;;;8.10;69.69;102044.13;4957120;28;45443;-78
2021/11/16 08:45:25;;;;;;;;;27.67;18.00;;;;;8.12;69.85;102036.22;4970628;28;48261;-78
2021/11/16 08:47:55;;;;;;;;;22.00;16.00;;;;;8.19;69.64;102037.66;4972598;28;45502;-79
2021/11/16 08:50:27;;;;;;;;;26.25;18.00;;;;;8.22;69.75;102036.66;4973788;28;45222;-79
2021/11/16 08:52:54;;;;;;;;;28.67;20.33;;;;;8.23;69.25;102033.97;4970350;28;45370;-77
2021/11/16 08:55:22;;;;;;;;;22.67;13.67;;;;;8.24;69.02;102034.84;4970053;28;48591;-79
2021/11/16 08:57:51;;;;;;;;;27.67;20.00;;;;;8.27;69.58;102029.47;4971906;28;45469;-78
2021/11/16 09:00:28;;;;;;;;;11.33;9.00;;;;;8.27;69.12;102024.22;4974395;28;45425;-78
2021/11/16 09:03:11;;;;;;;;;13.67;8.00;;;;;8.25;69.21;102019.06;4972260;28;45312;-80
2021/11/16 09:05:43;;;;;;;;;16.67;15.67;;;;;8.24;68.89;102013.91;4971375;28;46377;-78
2021/11/16 09:08:14;;;;;;;;;26.67;15.00;;;;;8.24;69.03;102014.75;4975065;28;45596;-78
2021/11/16 09:10:41;;;;;;;;;23.33;19.33;;;;;8.29;69.16;102021.53;4973098;28;45493;-80
2021/11/16 09:13:10;;;;;;;;;25.00;17.50;;;;;8.32;68.84;102016.19;4974329;28;45228;-78
2021/11/16 09:15:37;;;;;;;;;21.33;15.00;;;;;8.34;68.95;102020.44;4973721;28;46068;-80
2021/11/16 09:18:17;;;;;;;;;19.00;16.00;;;;;8.35;68.41;102026.50;4974922;28;45472;-80
2021/11/16 09:20:52;;;;;;;;;22.00;18.00;;;;;8.35;68.65;102016.88;4989786;28;45494;-79
2021/11/16 09:23:25;;;;;;;;;19.33;14.67;;;;;8.33;68.54;102012.63;4972143;28;45266;-78
2021/11/16 09:25:53;;;;;;;;;19.67;14.67;;;;;8.36;68.41;102008.13;4974248;28;46354;-79
2021/11/16 09:28:34;;;;;;;;;15.67;14.00;;;;;8.40;68.47;102012.28;4973952;28;45657;-79
2021/11/16 09:31:21;;;;;;;;;21.00;16.00;;;;;8.43;68.17;102004.31;4976113;28;45460;-80
2021/11/16 09:33:47;;;;;;;;;19.00;12.67;;;;;8.46;68.29;101994.63;5036534;28;45769;-79
2021/11/16 09:36:34;;;;;;;;;18.67;17.00;;;;;8.50;68.39;102004.91;5035857;28;45489;-80
2021/11/16 09:39:06;;;;;;;;;25.00;19.00;;;;;8.56;67.90;101999.41;5035701;28;45472;-79
2021/11/16 09:41:53;;;;;;;;;21.67;16.00;;;;;8.62;68.11;101993.03;5035712;28;45267;-79
2021/11/16 09:44:41;;;;;;;;;23.00;16.33;;;;;8.71;68.25;102008.31;5035011;28;45363;-78
2021/11/16 09:47:09;;;;;;;;;22.33;18.33;;;;;8.80;67.85;102011.47;5033577;28;48036;-79
2021/11/16 09:49:39;;;;;;;;;27.67;16.33;;;;;8.85;67.80;101999.84;5034341;28;45345;-80
2021/11/16 09:52:12;;;;;;;;;16.67;11.67;;;;;8.87;67.09;102015.47;5034357;28;45476;-77
2021/11/16 09:55:30;;;;;;;;;15.33;13.33;;;;;8.90;67.05;102007.50;5036749;28;45632;-78
2021/11/16 09:57:59;;;;;;;;;23.33;14.67;;;;;8.90;67.19;102004.88;4972636;28;46961;-79
2021/11/16 10:00:31;;;;;;;;;20.33;15.00;;;;;8.91;66.72;102010.03;4981256;28;45260;-79
2021/11/16 10:02:59;;;;;;;;;20.00;16.00;;;;;8.93;66.85;102002.09;4979894;28;45665;-79
2021/11/16 10:05:26;;;;;;;;;23.33;14.33;;;;;8.92;66.75;101995.16;4979046;28;45539;-79
2021/11/16 10:07:57;;;;;;;;;16.33;14.33;;;;;8.95;66.85;102005.47;4976451;28;47065;-80
2021/11/16 10:10:24;;;;;;;;;20.33;15.00;;;;;8.98;66.42;101992.25;4953741;28;45394;-78
2021/11/16 10:13:02;;;;;;;;;17.00;15.33;;;;;9.05;66.70;102001.50;4896281;29;45653;-78
2021/11/16 10:15:31;;;;;;;;;18.00;14.67;;;;;9.14;66.84;101988.91;4896817;28;45442;-79
2021/11/16 10:17:57;;;;;;;;;11.67;10.00;;;;;9.19;65.97;101997.41;4896147;28;45530;-77
2021/11/16 10:20:26;;;;;;;;;7.67;5.67;;;;;9.22;66.06;102002.47;4895817;28;45527;-79
2021/11/16 10:22:55;;;;;;;;;10.00;8.67;;;;;9.18;65.33;101998.31;4881958;29;45630;-79
2021/11/16 10:25:23;;;;;;;;;14.00;10.00;;;;;9.12;65.11;101995.97;4896169;28;45625;-77
2021/11/16 10:27:53;;;;;;;;;15.67;11.00;;;;;9.12;65.57;101999.47;4910184;29;45489;-79
2021/11/16 10:30:22;;;;;;;;;16.67;13.67;;;;;9.14;65.64;102002.00;4914262;29;44788;-79
2021/11/16 10:33:08;;;;;;;;;16.67;14.67;;;;;9.16;65.50;102002.75;4911348;28;45318;-79
2021/11/16 10:35:39;;;;;;;;;17.00;12.00;;;;;9.21;65.54;101995.53;4992129;28;45375;-78
2021/11/16 10:38:07;;;;;;;;;18.33;12.67;;;;;9.22;65.33;101998.09;4988854;28;46244;-80
2021/11/16 10:40:34;;;;;;;;;14.67;12.67;;;;;9.27;65.35;101999.66;4989944;28;45465;-81
2021/11/16 10:43:01;;;;;;;;;15.67;11.33;;;;;9.25;64.93;102003.19;4987740;28;45425;-78
2021/11/16 10:45:51;;;;;;;;;14.67;10.67;;;;;9.23;65.20;102001.56;4977151;28;45884;-79
2021/11/16 10:48:20;;;;;;;;;16.67;14.67;;;;;9.24;65.07;102003.25;4980032;28;45399;-79
2021/11/16 10:50:48;;;;;;;;;13.00;10.00;;;;;9.25;65.32;102005.81;4970443;28;45587;-81
2021/11/16 10:53:18;;;;;;;;;16.00;13.67;;;;;9.28;64.96;102002.19;4971280;28;45461;-78
2021/11/16 10:55:49;;;;;;;;;13.67;11.00;;;;;9.25;65.20;101991.84;4971698;28;45438;-78
2021/11/16 10:58:21;;;;;;;;;16.00;13.00;;;;;9.25;65.19;101982.22;4974997;28;46372;-78
2021/11/16 11:01:05;;;;;;;;;17.33;12.67;;;;;9.30;65.23;101982.00;4964229;28;45379;-78
2021/11/16 11:03:38;;;;;;;;;20.67;10.67;;;;;9.34;64.88;101978.31;4986490;28;45377;-78
2021/11/16 11:06:10;;;;;;;;;15.00;12.67;;;;;9.36;65.02;101983.47;4988153;28;45406;-77
2021/11/16 11:08:43;;;;;;;;;18.33;16.00;;;;;9.35;64.95;101977.34;4990245;28;45315;-79
2021/11/16 11:11:30;;;;;;;;;11.00;11.00;;;;;9.34;64.48;101975.69;4986474;28;45479;-78
2021/11/16 11:14:17;;;;;;;;;15.67;13.33;;;;;9.34;64.44;101978.31;4992259;28;45395;-78
2021/11/16 11:16:51;;;;;;;;;20.00;11.00;;;;;9.32;64.44;101971.44;4989048;27;44916;-80
2021/11/16 11:19:19;;;;;;;;;21.33;14.67;;;;;9.30;64.85;101965.41;4991679;28;45446;-79
2021/11/16 11:21:57;;;;;;;;;12.67;11.00;;;;;9.33;65.05;101967.88;4992196;28;44901;-79
2021/11/16 11:24:36;;;;;;;;;15.33;12.00;;;;;9.36;64.75;101963.31;4984068;28;44725;-79
2021/11/16 11:27:10;;;;;;;;;15.67;11.67;;;;;9.39;64.44;101957.06;4993144;28;45533;-79
2021/11/16 11:32:09;;;;;;;;;13.33;10.67;;;;;9.38;64.53;101955.38;4980166;28;45233;-78
2021/11/16 11:34:49;;;;;;;;;20.67;14.67;;;;;9.35;64.61;101953.75;4978923;28;45358;-80
2021/11/16 11:37:21;;;;;;;;;18.33;13.00;;;;;9.34;64.35;101959.94;4978421;28;45439;-78
2021/11/16 11:39:54;;;;;;;;;14.67;11.33;;;;;9.31;64.51;101954.00;4962334;28;45593;-79
2021/11/16 11:42:19;;;;;;;;;18.00;14.67;;;;;9.28;64.41;101954.16;4977444;28;45437;-80